Miniplon — FIDV — position and weather

sailwx.info

Track history (hours):
 
Tides and Currents Weather Stations Pressure Air Temp Water Temp Dewpoint Dewpoint Depression Visibility Wind Speed Wind Dir Waves Ship Positions

Miniplon

Last reported at 2016-May-04 09:12 UTC. Time now 2016-May-05 14:13 UTC.
Position N 46°30' W 001°47'.

Length 22 m.

Type: SAR. MMSI: 228024600.

Date/timePositionNaut miles runAvg speedWind from/ knotsBaromVisibWave heightAir tempDewpointWater temp
2016-May-04 09:12N 46°30' W 001°47'0 0.0
2016-May-04 08:33N 46°30' W 001°47'0 0.0
2016-May-04 07:33N 46°30' W 001°47'0 0.0
2016-May-04 06:33N 46°30' W 001°47'4 3.9
2016-May-04 05:33N 46°26' W 001°50'1 1.3
2016-May-04 04:33N 46°27' W 001°48'3 0.1
2016-May-02 13:09N 46°30' W 001°47'2 3.4
2016-May-02 12:33N 46°28' W 001°47'8 7.7
2016-May-02 11:33N 46°24' W 001°37'1 1.0
2016-May-02 10:33N 46°24' W 001°39'8 8.2
2016-May-02 09:33N 46°30' W 001°47'0 0.0
2016-Apr-30 11:09N 46°30' W 001°47'0 0.0
2016-Apr-30 10:33N 46°30' W 001°47'0 0.1
2016-Apr-30 09:29N 46°30' W 001°47'0 0.0
2016-Apr-30 08:32N 46°30' W 001°47'0 0.0
2016-Apr-30 07:32N 46°30' W 001°47'0 0.0
2016-Apr-30 06:32N 46°30' W 001°47'0 0.1
2016-Apr-30 05:32N 46°30' W 001°47'2 1.9
2016-Apr-30 04:33N 46°28' W 001°49'1010.2
2016-Apr-30 03:33N 46°34' W 002°01'5 0.1
2016-Apr-28 04:22N 46°37' W 002°07'7 9.0
2016-Apr-28 03:33N 46°33' W 001°58'9 8.6
2016-Apr-28 02:33N 46°29' W 001°48'  
Track history (hours):
 
Tides and Currents Weather Stations Pressure Air Temp Water Temp Dewpoint Dewpoint Depression Visibility Wind Speed Wind Dir Waves Ship Positions

Miniplon

Last reported at 2016-May-04 09:12 UTC. Time now 2016-May-05 14:13 UTC.
Position N 46°30' W 001°47'.

Length 22 m.

Type: SAR. MMSI: 228024600.

Date/timePositionNaut miles runAvg speedWind from/ knotsBaromVisibWave heightAir tempDewpointWater temp
2016-May-04 09:12N 46°30' W 001°47'0 0.0
2016-May-04 08:33N 46°30' W 001°47'0 0.0
2016-May-04 07:33N 46°30' W 001°47'0 0.0
2016-May-04 06:33N 46°30' W 001°47'4 3.9
2016-May-04 05:33N 46°26' W 001°50'1 1.3
2016-May-04 04:33N 46°27' W 001°48'3 0.1
2016-May-02 13:09N 46°30' W 001°47'2 3.4
2016-May-02 12:33N 46°28' W 001°47'8 7.7
2016-May-02 11:33N 46°24' W 001°37'1 1.0
2016-May-02 10:33N 46°24' W 001°39'8 8.2
2016-May-02 09:33N 46°30' W 001°47'0 0.0
2016-Apr-30 11:09N 46°30' W 001°47'0 0.0
2016-Apr-30 10:33N 46°30' W 001°47'0 0.1
2016-Apr-30 09:29N 46°30' W 001°47'0 0.0
2016-Apr-30 08:32N 46°30' W 001°47'0 0.0
2016-Apr-30 07:32N 46°30' W 001°47'0 0.0
2016-Apr-30 06:32N 46°30' W 001°47'0 0.1
2016-Apr-30 05:32N 46°30' W 001°47'2 1.9
2016-Apr-30 04:33N 46°28' W 001°49'1010.2
2016-Apr-30 03:33N 46°34' W 002°01'5 0.1
2016-Apr-28 04:22N 46°37' W 002°07'7 9.0
2016-Apr-28 03:33N 46°33' W 001°58'9 8.6
2016-Apr-28 02:33N 46°29' W 001°48'  

Dump ship's entire track history